createdAt,value
2023-05-16T00:01:48.631Z,28.25
2023-05-16T00:04:19.457Z,28.22
2023-05-16T00:06:49.770Z,28.19
2023-05-16T00:09:20.183Z,28.18
2023-05-16T00:11:50.678Z,28.16
2023-05-16T00:14:22.273Z,28.14
2023-05-16T00:16:54.370Z,28.14
2023-05-16T00:19:24.579Z,28.12
2023-05-16T00:21:55.349Z,28.11
2023-05-16T00:24:25.812Z,28.09
2023-05-16T00:26:56.457Z,28.08
2023-05-16T00:29:26.966Z,28.08
2023-05-16T00:31:59.587Z,28.05
2023-05-16T00:34:30.266Z,28.04
2023-05-16T00:37:00.844Z,28.02
2023-05-16T00:39:31.330Z,27.99
2023-05-16T00:42:01.833Z,27.95
2023-05-16T00:44:32.279Z,27.93
2023-05-16T00:47:04.861Z,27.90
2023-05-16T00:49:35.476Z,27.87
2023-05-16T00:52:07.340Z,27.83
2023-05-16T00:54:37.785Z,27.83
2023-05-16T00:57:09.536Z,27.80
2023-05-16T00:59:40.508Z,27.79
2023-05-16T01:02:12.052Z,27.77
2023-05-16T01:04:43.029Z,27.76
2023-05-16T01:07:14.039Z,27.75
2023-05-16T01:09:44.151Z,27.74
2023-05-16T01:12:21.946Z,27.73
2023-05-16T01:15:04.696Z,27.70
2023-05-16T01:17:52.744Z,27.66
2023-05-16T01:20:36.677Z,27.63
2023-05-16T01:23:44.027Z,27.59
2023-05-16T01:26:22.800Z,27.57
2023-05-16T01:28:55.006Z,27.56
2023-05-16T01:31:26.808Z,27.55
2023-05-16T01:33:57.370Z,27.56
2023-05-16T01:36:38.683Z,27.57
2023-05-16T01:39:19.988Z,27.57
2023-05-16T01:42:06.564Z,27.58
2023-05-16T01:44:45.963Z,27.59
2023-05-16T01:47:18.971Z,27.59
2023-05-16T01:49:59.481Z,27.60
2023-05-16T01:52:40.982Z,27.59
2023-05-16T01:55:19.424Z,27.58
2023-05-16T01:57:56.156Z,27.58
2023-05-16T02:00:27.129Z,27.58
2023-05-16T02:02:57.613Z,27.59
2023-05-16T02:05:28.862Z,27.59
2023-05-16T02:08:00.139Z,27.60
2023-05-16T02:10:31.204Z,27.61
2023-05-16T02:13:03.789Z,27.61
2023-05-16T02:15:34.359Z,27.61
2023-05-16T02:18:04.928Z,27.59
2023-05-16T02:20:35.989Z,27.59
2023-05-16T02:23:06.056Z,27.59
2023-05-16T02:25:36.533Z,27.58
2023-05-16T02:28:09.368Z,27.57
2023-05-16T02:30:40.024Z,27.56
2023-05-16T02:33:10.592Z,27.55
2023-05-16T02:35:41.656Z,27.57
2023-05-16T02:38:11.777Z,27.56
2023-05-16T02:40:41.728Z,27.54
2023-05-16T02:43:14.230Z,27.54
2023-05-16T02:45:44.914Z,27.54
2023-05-16T02:48:15.529Z,27.54
2023-05-16T02:50:45.583Z,27.52
2023-05-16T02:53:16.004Z,27.54
2023-05-16T02:55:46.934Z,27.53
2023-05-16T02:58:19.328Z,27.54
2023-05-16T03:00:49.915Z,27.52
2023-05-16T03:03:20.452Z,27.53
2023-05-16T03:05:50.555Z,27.51
2023-05-16T03:08:21.198Z,27.50
2023-05-16T03:10:51.692Z,27.50
2023-05-16T03:13:24.132Z,27.49
2023-05-16T03:15:54.970Z,27.48
2023-05-16T03:18:25.104Z,27.47
2023-05-16T03:20:55.385Z,27.46
2023-05-16T03:23:25.415Z,27.45
2023-05-16T03:25:56.607Z,27.45
2023-05-16T03:28:30.002Z,27.43
2023-05-16T03:31:00.901Z,27.42
2023-05-16T03:33:31.724Z,27.41
2023-05-16T03:36:02.517Z,27.40
2023-05-16T03:38:33.123Z,27.40
2023-05-16T03:41:03.632Z,27.41
2023-05-16T03:43:35.625Z,27.40
2023-05-16T03:46:05.536Z,27.39
2023-05-16T03:48:36.352Z,27.38
2023-05-16T03:51:08.986Z,27.35
2023-05-16T03:53:40.335Z,27.35
2023-05-16T03:56:10.870Z,27.34
2023-05-16T03:58:43.379Z,27.35
2023-05-16T04:01:13.852Z,27.34
2023-05-16T04:03:44.230Z,27.34
2023-05-16T04:06:14.896Z,27.33
2023-05-16T04:08:45.515Z,27.36
2023-05-16T04:11:16.025Z,27.35
2023-05-16T04:13:48.889Z,27.38
2023-05-16T04:16:19.342Z,27.39
2023-05-16T04:18:50.210Z,27.40
2023-05-16T04:21:21.215Z,27.41
2023-05-16T04:23:51.163Z,27.42
2023-05-16T04:26:22.410Z,27.44
2023-05-16T04:28:53.867Z,27.47
2023-05-16T04:31:25.313Z,27.49
2023-05-16T04:33:56.515Z,27.51
2023-05-16T04:36:30.479Z,27.53
2023-05-16T04:39:00.836Z,27.55
2023-05-16T04:41:31.402Z,27.58
2023-05-16T04:44:06.072Z,27.60
2023-05-16T04:46:36.589Z,27.60
2023-05-16T04:49:06.657Z,27.62
2023-05-16T04:51:36.512Z,27.62
2023-05-16T04:54:06.686Z,27.64
2023-05-16T04:56:37.098Z,27.65
2023-05-16T04:59:09.587Z,27.67
2023-05-16T05:01:40.234Z,27.68
2023-05-16T05:04:10.830Z,27.71
2023-05-16T05:06:41.707Z,27.72
2023-05-16T05:09:12.297Z,27.73
2023-05-16T05:11:42.149Z,27.77
2023-05-16T05:14:14.767Z,27.81
2023-05-16T05:16:45.240Z,27.85
2023-05-16T05:19:15.789Z,27.89
2023-05-16T05:21:45.912Z,27.94
2023-05-16T05:24:16.470Z,27.97
2023-05-16T05:26:46.735Z,28.04
2023-05-16T05:29:18.378Z,28.10
2023-05-16T05:31:48.920Z,28.15
2023-05-16T05:34:19.393Z,28.20
2023-05-16T05:36:49.975Z,28.25
2023-05-16T05:39:20.622Z,28.32
2023-05-16T05:41:51.587Z,28.37
2023-05-16T05:44:23.451Z,28.44
2023-05-16T05:46:54.097Z,28.49
2023-05-16T05:49:24.629Z,28.57
2023-05-16T05:51:55.347Z,28.63
2023-05-16T05:54:25.960Z,28.68
2023-05-16T05:56:56.439Z,28.75
2023-05-16T05:59:29.119Z,28.81
2023-05-16T06:01:59.963Z,28.87
2023-05-16T06:04:30.573Z,28.93
2023-05-16T06:07:00.416Z,28.99
2023-05-16T06:09:30.958Z,29.04
2023-05-16T06:12:01.473Z,29.11
2023-05-16T06:14:33.646Z,29.17
2023-05-16T06:17:04.189Z,29.23
2023-05-16T06:19:34.693Z,29.29
2023-05-16T06:22:05.199Z,29.36
2023-05-16T06:24:35.788Z,29.41
2023-05-16T06:27:06.468Z,29.47
2023-05-16T06:29:38.582Z,29.53
2023-05-16T06:32:12.451Z,29.59
2023-05-16T06:34:43.835Z,29.65
2023-05-16T06:37:14.312Z,29.71
2023-05-16T06:39:44.316Z,29.78
2023-05-16T06:42:15.313Z,29.82
2023-05-16T06:44:47.568Z,29.89
2023-05-16T06:47:18.570Z,29.95
2023-05-16T06:49:48.583Z,30.02
2023-05-16T06:52:18.549Z,30.09
2023-05-16T06:54:49.092Z,30.14
2023-05-16T06:57:19.794Z,30.19
2023-05-16T06:59:52.389Z,30.25
2023-05-16T07:02:22.989Z,30.32
2023-05-16T07:04:53.575Z,30.36
2023-05-16T07:07:24.121Z,30.43
2023-05-16T07:09:54.061Z,30.47
2023-05-16T07:12:24.686Z,30.53
2023-05-16T07:14:57.170Z,30.57
2023-05-16T07:17:27.152Z,30.62
2023-05-16T07:19:57.042Z,30.66
2023-05-16T07:22:27.721Z,30.70
2023-05-16T07:25:01.504Z,30.74
2023-05-16T07:27:32.540Z,30.79
2023-05-16T07:30:05.124Z,30.82
2023-05-16T07:32:35.662Z,30.85
2023-05-16T07:35:05.999Z,30.89
2023-05-16T07:37:37.564Z,30.94
2023-05-16T07:40:10.179Z,30.99
2023-05-16T07:42:40.709Z,31.02
2023-05-16T07:45:13.831Z,31.06
2023-05-16T07:47:44.422Z,31.10
2023-05-16T07:50:15.378Z,31.13
2023-05-16T07:52:45.542Z,31.17
2023-05-16T07:55:16.462Z,31.21
2023-05-16T07:57:47.106Z,31.25
2023-05-16T08:00:22.864Z,31.30
2023-05-16T08:02:54.292Z,31.33
2023-05-16T08:05:25.093Z,31.36
2023-05-16T08:07:55.313Z,31.41
2023-05-16T08:10:26.240Z,31.43
2023-05-16T08:12:59.096Z,31.46
2023-05-16T08:15:31.427Z,31.50
2023-05-16T08:18:03.079Z,31.53
2023-05-16T08:20:32.863Z,31.55
2023-05-16T08:23:03.374Z,31.59
2023-05-16T08:25:33.874Z,31.62
2023-05-16T08:28:04.093Z,31.65
2023-05-16T08:30:37.426Z,31.68
2023-05-16T08:33:09.748Z,31.71
2023-05-16T08:35:40.358Z,31.74
2023-05-16T08:38:10.221Z,31.76
2023-05-16T08:40:40.581Z,31.80
2023-05-16T08:43:11.622Z,31.82
2023-05-16T08:45:44.648Z,31.85
2023-05-16T08:48:15.265Z,31.87
2023-05-16T08:50:46.901Z,31.90
2023-05-16T08:53:29.806Z,31.92
2023-05-16T08:56:01.914Z,31.94
2023-05-16T08:58:32.674Z,31.96
2023-05-16T09:01:09.487Z,31.99
2023-05-16T09:03:41.430Z,32.01
2023-05-16T09:06:12.140Z,32.02
2023-05-16T09:08:42.629Z,32.05
2023-05-16T09:11:13.516Z,32.07
2023-05-16T09:13:44.112Z,32.10
2023-05-16T09:16:18.070Z,32.12
2023-05-16T09:18:55.668Z,32.14
2023-05-16T09:21:33.731Z,32.16
2023-05-16T09:24:07.809Z,32.18
2023-05-16T09:26:39.801Z,32.20
2023-05-16T09:29:14.044Z,32.23
2023-05-16T09:31:46.697Z,32.26
2023-05-16T09:34:17.247Z,32.28
2023-05-16T09:36:47.621Z,32.30
2023-05-16T09:39:19.229Z,32.33
2023-05-16T09:41:54.281Z,32.34
2023-05-16T09:44:24.775Z,32.35
2023-05-16T09:46:59.185Z,32.38
2023-05-16T09:49:30.243Z,32.39
2023-05-16T09:52:04.068Z,32.40
2023-05-16T09:54:35.344Z,32.40
2023-05-16T09:57:06.506Z,32.41
2023-05-16T09:59:40.224Z,32.41
2023-05-16T10:02:13.550Z,32.42
2023-05-16T10:04:43.820Z,32.43
2023-05-16T10:07:15.170Z,32.44
2023-05-16T10:09:49.139Z,32.44
2023-05-16T10:12:20.337Z,32.45
2023-05-16T10:14:50.986Z,32.47
2023-05-16T10:17:23.794Z,32.48
2023-05-16T10:19:56.430Z,32.48
2023-05-16T10:22:28.896Z,32.49
2023-05-16T10:25:16.647Z,32.49
2023-05-16T10:27:48.422Z,32.48
2023-05-16T10:30:20.767Z,32.48
2023-05-16T10:32:55.947Z,32.43
2023-05-16T10:35:28.414Z,32.38
2023-05-16T10:38:00.095Z,32.31
2023-05-16T10:40:32.607Z,32.28
2023-05-16T10:43:05.051Z,32.25
2023-05-16T10:45:35.932Z,32.24
2023-05-16T10:48:10.380Z,32.23
2023-05-16T10:50:44.044Z,32.22
2023-05-16T10:53:20.985Z,32.23
2023-05-16T10:56:11.210Z,32.24
2023-05-16T10:58:50.742Z,32.25
2023-05-16T11:01:24.778Z,32.27
2023-05-16T11:04:13.014Z,32.28
2023-05-16T11:06:57.175Z,32.31
2023-05-16T11:09:29.521Z,32.31
2023-05-16T11:12:06.980Z,32.33
2023-05-16T11:14:45.660Z,32.35
2023-05-16T11:17:17.882Z,32.35
2023-05-16T11:20:00.057Z,32.35
2023-05-16T11:22:32.391Z,32.35
2023-05-16T11:25:04.803Z,32.34
2023-05-16T11:27:38.185Z,32.35
2023-05-16T11:30:18.141Z,32.35
2023-05-16T11:32:51.253Z,32.35
2023-05-16T11:35:23.672Z,32.38
2023-05-16T11:37:54.841Z,32.38
2023-05-16T11:40:24.824Z,32.39
2023-05-16T11:42:55.784Z,32.40
2023-05-16T11:45:26.775Z,32.41
2023-05-16T11:47:58.077Z,32.41
2023-05-16T11:50:31.244Z,32.42
2023-05-16T11:53:04.901Z,32.42
2023-05-16T11:58:09.422Z,32.43
2023-05-16T12:00:39.811Z,32.43
2023-05-16T12:03:10.476Z,32.45
2023-05-16T12:06:03.618Z,32.46
2023-05-16T12:08:34.730Z,32.45
2023-05-16T12:11:05.796Z,32.45
2023-05-16T12:13:36.795Z,32.47
2023-05-16T12:16:08.032Z,32.47
2023-05-16T12:18:41.924Z,32.48
2023-05-16T12:21:16.750Z,32.49
2023-05-16T12:23:47.367Z,32.50
2023-05-16T12:26:18.422Z,32.52
2023-05-16T12:28:49.123Z,32.50
2023-05-16T12:31:31.543Z,32.52
2023-05-16T12:34:03.846Z,32.50
2023-05-16T12:36:38.357Z,32.49
2023-05-16T12:39:10.605Z,32.49
2023-05-16T12:41:44.350Z,32.49
2023-05-16T12:44:17.708Z,32.49
2023-05-16T12:46:50.246Z,32.50
2023-05-16T12:49:23.800Z,32.52
2023-05-16T12:52:00.578Z,32.53
2023-05-16T12:54:31.663Z,32.53
2023-05-16T12:57:01.762Z,32.54
2023-05-16T12:59:32.234Z,32.56
2023-05-16T13:02:02.928Z,32.57
2023-05-16T13:04:34.012Z,32.58
2023-05-16T13:07:07.645Z,32.59
2023-05-16T13:09:38.167Z,32.59
2023-05-16T13:12:09.164Z,32.60
2023-05-16T13:14:41.793Z,32.60
2023-05-16T13:17:14.208Z,32.61
2023-05-16T13:19:46.325Z,32.61
2023-05-16T13:22:20.214Z,32.62
2023-05-16T13:24:50.918Z,32.61
2023-05-16T13:27:21.514Z,32.61
2023-05-16T13:29:52.100Z,32.60
2023-05-16T13:32:21.919Z,32.59
2023-05-16T13:34:52.562Z,32.59
2023-05-16T13:37:26.238Z,32.60
2023-05-16T13:39:57.054Z,32.58
2023-05-16T13:42:27.190Z,32.58
2023-05-16T13:44:57.585Z,32.57
2023-05-16T13:47:27.520Z,32.57
2023-05-16T13:49:58.199Z,32.56
2023-05-16T13:52:31.277Z,32.55
2023-05-16T13:55:02.152Z,32.53
2023-05-16T13:57:33.503Z,32.53
2023-05-16T14:00:43.638Z,32.52
2023-05-16T14:02:56.311Z,32.51
2023-05-16T14:05:27.115Z,32.50
2023-05-16T14:07:58.644Z,32.50
2023-05-16T14:10:29.411Z,32.49
2023-05-16T14:13:00.186Z,32.48
2023-05-16T14:15:30.907Z,32.48
2023-05-16T14:18:01.860Z,32.48
2023-05-16T14:20:32.314Z,32.47
2023-05-16T14:23:04.917Z,32.46
2023-05-16T14:25:35.409Z,32.46
2023-05-16T14:28:06.200Z,32.46
2023-05-16T14:30:37.707Z,32.45
2023-05-16T14:33:08.723Z,32.44
2023-05-16T14:35:40.106Z,32.44
2023-05-16T14:38:12.792Z,32.44
2023-05-16T14:40:45.285Z,32.42
2023-05-16T14:43:15.528Z,32.42
2023-05-16T14:45:46.273Z,32.42
2023-05-16T14:48:17.475Z,32.41
2023-05-16T14:50:48.110Z,32.41
2023-05-16T14:53:22.031Z,32.40
2023-05-16T14:55:52.269Z,32.40
2023-05-16T14:58:22.782Z,32.40
2023-05-16T15:00:53.915Z,32.40
2023-05-16T15:03:24.645Z,32.39
2023-05-16T15:05:55.599Z,32.39
2023-05-16T15:08:27.558Z,32.39
2023-05-16T15:10:58.054Z,32.38
2023-05-16T15:13:28.683Z,32.38
2023-05-16T15:15:59.600Z,32.38
2023-05-16T15:18:29.794Z,32.37
2023-05-16T15:21:00.752Z,32.37
2023-05-16T15:23:32.867Z,32.36
2023-05-16T15:26:03.347Z,32.35
2023-05-16T15:28:33.924Z,32.34
2023-05-16T15:31:06.119Z,32.34
2023-05-16T15:33:36.928Z,32.34
2023-05-16T15:36:08.637Z,32.33
2023-05-16T15:38:44.573Z,32.31
2023-05-16T15:41:36.794Z,32.30
2023-05-16T15:44:07.323Z,32.29
2023-05-16T15:46:37.507Z,32.28
2023-05-16T15:49:09.891Z,32.27
2023-05-16T15:51:40.168Z,32.26
2023-05-16T15:54:12.752Z,32.25
2023-05-16T15:56:43.801Z,32.25
2023-05-16T15:59:14.518Z,32.22
2023-05-16T16:01:45.371Z,32.22
2023-05-16T16:04:16.200Z,32.19
2023-05-16T16:06:47.473Z,32.19
2023-05-16T16:09:21.296Z,32.16
2023-05-16T16:11:56.555Z,32.15
2023-05-16T16:14:27.601Z,32.14
2023-05-16T16:16:58.335Z,32.13
2023-05-16T16:19:29.677Z,32.11
2023-05-16T16:22:00.228Z,32.09
2023-05-16T16:24:33.037Z,32.07
2023-05-16T16:27:03.540Z,32.07
2023-05-16T16:29:33.632Z,32.06
2023-05-16T16:32:04.330Z,32.04
2023-05-16T16:34:35.184Z,32.03
2023-05-16T16:37:05.706Z,32.01
2023-05-16T16:39:38.643Z,32.00
2023-05-16T16:42:09.660Z,31.98
2023-05-16T16:44:40.283Z,31.96
2023-05-16T16:47:12.208Z,31.94
2023-05-16T16:49:43.142Z,31.93
2023-05-16T16:52:14.071Z,31.91
2023-05-16T16:54:46.991Z,31.90
2023-05-16T16:57:17.722Z,31.88
2023-05-16T16:59:52.265Z,31.87
2023-05-16T17:02:24.483Z,31.86
2023-05-16T17:04:57.666Z,31.85
2023-05-16T17:07:29.403Z,31.85
2023-05-16T17:10:17.364Z,31.84
2023-05-16T17:12:50.166Z,31.83
2023-05-16T17:15:21.341Z,31.83
2023-05-16T17:17:52.072Z,31.83
2023-05-16T17:20:21.881Z,31.83
2023-05-16T17:22:52.465Z,31.83
2023-05-16T17:25:25.340Z,31.84
2023-05-16T17:27:56.241Z,31.83
2023-05-16T17:30:27.143Z,31.84
2023-05-16T17:32:57.192Z,31.84
2023-05-16T17:35:28.564Z,31.85
2023-05-16T17:37:59.879Z,31.83
2023-05-16T17:40:32.506Z,31.83
2023-05-16T17:43:05.201Z,31.83
2023-05-16T17:45:36.682Z,31.82
2023-05-16T17:48:07.561Z,31.81
2023-05-16T17:50:39.739Z,31.81
2023-05-16T17:53:09.967Z,31.80
2023-05-16T17:55:43.211Z,31.79
2023-05-16T17:58:13.779Z,31.79
2023-05-16T18:00:44.129Z,31.78
2023-05-16T18:03:16.504Z,31.79
2023-05-16T18:05:50.387Z,31.77
2023-05-16T18:08:24.553Z,31.77
2023-05-16T18:11:02.474Z,31.74
2023-05-16T18:13:34.200Z,31.73
2023-05-16T18:16:06.894Z,31.72
2023-05-16T18:18:41.180Z,31.72
2023-05-16T18:21:13.197Z,31.71
2023-05-16T18:23:46.490Z,31.68
2023-05-16T18:26:21.334Z,31.68
2023-05-16T18:28:59.213Z,31.66
2023-05-16T18:31:38.753Z,31.66
2023-05-16T18:34:10.588Z,31.63
2023-05-16T18:36:55.658Z,31.63
2023-05-16T18:39:42.984Z,31.61
2023-05-16T18:42:28.025Z,31.60
2023-05-16T18:45:06.441Z,31.60
2023-05-16T18:47:45.859Z,31.58
2023-05-16T18:50:25.426Z,31.56
2023-05-16T18:53:05.135Z,31.55
2023-05-16T18:55:46.627Z,31.54
2023-05-16T18:58:32.951Z,31.53
2023-05-16T19:01:16.764Z,31.53
2023-05-16T19:03:56.538Z,31.51
2023-05-16T19:06:35.591Z,31.50
2023-05-16T19:09:12.281Z,31.49
2023-05-16T19:11:52.332Z,31.48
2023-05-16T19:14:30.652Z,31.47
2023-05-16T19:17:07.743Z,31.46
2023-05-16T19:19:39.831Z,31.44
2023-05-16T19:22:11.809Z,31.44
2023-05-16T19:24:41.707Z,31.44
2023-05-16T19:27:14.375Z,31.43
2023-05-16T19:29:51.238Z,31.43
2023-05-16T19:32:22.021Z,31.42
2023-05-16T19:34:55.285Z,31.41
2023-05-16T19:37:27.896Z,31.42
2023-05-16T19:39:59.729Z,31.41
2023-05-16T19:42:34.669Z,31.41
2023-05-16T19:45:09.026Z,31.40
2023-05-16T19:47:40.930Z,31.39
2023-05-16T19:50:13.347Z,31.38
2023-05-16T19:52:43.946Z,31.38
2023-05-16T19:55:14.421Z,31.37
2023-05-16T19:57:44.800Z,31.38
2023-05-16T20:00:19.556Z,31.37
2023-05-16T20:02:50.696Z,31.35
2023-05-16T20:05:23.506Z,31.35
2023-05-16T20:07:54.835Z,31.34
2023-05-16T20:10:25.434Z,31.33
2023-05-16T20:12:56.266Z,31.33
2023-05-16T20:15:29.696Z,31.33
2023-05-16T20:18:00.162Z,31.32
2023-05-16T20:20:30.339Z,31.32
2023-05-16T20:23:01.767Z,31.31
2023-05-16T20:25:32.458Z,31.29
2023-05-16T20:28:03.235Z,31.27
2023-05-16T20:30:35.809Z,31.28
2023-05-16T20:33:06.493Z,31.26
2023-05-16T20:35:42.360Z,31.26
2023-05-16T20:38:17.901Z,31.25
2023-05-16T20:40:52.020Z,31.25
2023-05-16T20:43:26.631Z,31.26
2023-05-16T20:46:02.418Z,31.25
2023-05-16T20:48:35.208Z,31.22
2023-05-16T20:51:09.030Z,31.20
2023-05-16T20:53:43.631Z,31.16
2023-05-16T20:56:18.186Z,31.13
2023-05-16T20:58:53.423Z,31.08
2023-05-16T21:01:29.608Z,31.04
2023-05-16T21:04:03.967Z,31.00
2023-05-16T21:06:39.825Z,30.98
2023-05-16T21:09:11.274Z,30.96
2023-05-16T21:11:43.213Z,30.92
2023-05-16T21:14:14.663Z,30.89
2023-05-16T21:16:50.332Z,30.86
2023-05-16T21:19:21.722Z,30.83
2023-05-16T21:21:52.441Z,30.81
2023-05-16T21:24:24.081Z,30.77
2023-05-16T21:26:54.619Z,30.74
2023-05-16T21:29:25.361Z,30.70
2023-05-16T21:31:57.474Z,30.68
2023-05-16T21:34:28.091Z,30.64
2023-05-16T21:36:59.190Z,30.61
2023-05-16T21:39:29.305Z,30.58
2023-05-16T21:42:01.210Z,30.55
2023-05-16T21:44:39.771Z,30.51
2023-05-16T21:47:12.478Z,30.48
2023-05-16T21:49:42.516Z,30.46
2023-05-16T21:52:13.175Z,30.45
2023-05-16T21:54:43.727Z,30.43
2023-05-16T21:57:14.254Z,30.42
2023-05-16T21:59:44.281Z,30.39
2023-05-16T22:02:16.888Z,30.36
2023-05-16T22:04:48.077Z,30.31
2023-05-16T22:07:18.249Z,30.27
2023-05-16T22:09:51.234Z,30.24
2023-05-16T22:12:21.460Z,30.22
2023-05-16T22:14:52.131Z,30.22
2023-05-16T22:17:23.790Z,30.22
2023-05-16T22:19:54.798Z,30.20
2023-05-16T22:22:25.572Z,30.18
2023-05-16T22:24:56.224Z,30.17
2023-05-16T22:27:26.263Z,30.16
2023-05-16T22:29:56.741Z,30.14
2023-05-16T22:32:29.098Z,30.14
2023-05-16T22:34:59.218Z,30.15
2023-05-16T22:37:29.706Z,30.16
2023-05-16T22:39:59.717Z,30.18
2023-05-16T22:42:30.784Z,30.17
2023-05-16T22:45:01.312Z,30.18
2023-05-16T22:47:33.163Z,30.18
2023-05-16T22:50:03.695Z,30.17
2023-05-16T22:52:33.667Z,30.15
2023-05-16T22:55:04.836Z,30.15
2023-05-16T22:57:35.456Z,30.13
2023-05-16T23:00:06.507Z,30.13
2023-05-16T23:02:38.621Z,30.12
2023-05-16T23:05:11.238Z,30.09
2023-05-16T23:07:41.795Z,30.08
2023-05-16T23:10:13.015Z,30.05
2023-05-16T23:12:43.146Z,30.04
2023-05-16T23:15:14.507Z,30.03
2023-05-16T23:17:46.602Z,30.00
2023-05-16T23:20:17.426Z,29.99
2023-05-16T23:22:48.092Z,29.99
2023-05-16T23:25:18.280Z,29.95
2023-05-16T23:27:48.998Z,29.93
2023-05-16T23:30:19.840Z,29.89
2023-05-16T23:32:52.172Z,29.86
2023-05-16T23:35:22.882Z,29.83
2023-05-16T23:37:53.122Z,29.81
2023-05-16T23:40:23.819Z,29.79
2023-05-16T23:42:54.253Z,29.75
2023-05-16T23:45:24.921Z,29.73
2023-05-16T23:47:57.546Z,29.72
2023-05-16T23:50:27.770Z,29.70
2023-05-16T23:52:57.841Z,29.68
2023-05-16T23:55:28.648Z,29.66
2023-05-16T23:57:58.968Z,29.63
